Terminal Aerodrome Forecast
Issued by NWS

Home | Current Version | Previous Version | Text Only | Print | Product List | Glossary On
Versions: 1 2 3 4 5 6 7 8 9 10 11 12 13 14 15 16 17
000
FTUS45 KRIW 041130
TAFLND
TAF
KLND 041130Z 0412/0512 VRB06KT P6SM SCT250
     FM042000 21013G23KT P6SM FEW110 SCT200
     FM050400 19013KT P6SM VCTS SCT100CB
     FM050700 23011KT P6SM FEW110=

USA.gov is the U.S. government's official web portal to all federal, state and local government web resources and services.